sensor_id;sensor_type;location;lat;lon;timestamp;P1;durP1;ratioP1;P2;durP2;ratioP2
77262;SDS011;66373;52.334;4.806;2023-03-01T00:02:04;18.95;;;14.20;;
77262;SDS011;66373;52.334;4.806;2023-03-01T00:04:32;21.90;;;14.90;;
77262;SDS011;66373;52.334;4.806;2023-03-01T00:07:01;26.30;;;16.73;;
77262;SDS011;66373;52.334;4.806;2023-03-01T00:09:33;22.33;;;15.25;;
77262;SDS011;66373;52.334;4.806;2023-03-01T00:12:01;20.85;;;14.27;;
77262;SDS011;66373;52.334;4.806;2023-03-01T00:14:29;22.48;;;15.32;;
77262;SDS011;66373;52.334;4.806;2023-03-01T00:16:57;21.08;;;14.60;;
77262;SDS011;66373;52.334;4.806;2023-03-01T00:19:25;20.45;;;14.75;;
77262;SDS011;66373;52.334;4.806;2023-03-01T00:21:53;18.13;;;14.18;;
77262;SDS011;66373;52.334;4.806;2023-03-01T00:24:20;21.08;;;13.73;;
77262;SDS011;66373;52.334;4.806;2023-03-01T00:26:53;19.30;;;13.63;;
77262;SDS011;66373;52.334;4.806;2023-03-01T00:29:23;21.05;;;14.35;;
77262;SDS011;66373;52.334;4.806;2023-03-01T00:31:51;19.20;;;14.88;;
77262;SDS011;66373;52.334;4.806;2023-03-01T00:34:19;17.83;;;13.90;;
77262;SDS011;66373;52.334;4.806;2023-03-01T00:36:46;16.13;;;12.93;;
77262;SDS011;66373;52.334;4.806;2023-03-01T00:39:14;18.30;;;12.98;;
77262;SDS011;66373;52.334;4.806;2023-03-01T00:41:42;14.70;;;12.80;;
77262;SDS011;66373;52.334;4.806;2023-03-01T00:44:10;17.67;;;12.43;;
77262;SDS011;66373;52.334;4.806;2023-03-01T00:46:39;16.30;;;12.93;;
77262;SDS011;66373;52.334;4.806;2023-03-01T00:49:11;14.15;;;12.32;;
77262;SDS011;66373;52.334;4.806;2023-03-01T00:51:38;14.25;;;11.63;;
77262;SDS011;66373;52.334;4.806;2023-03-01T00:54:07;15.20;;;11.68;;
77262;SDS011;66373;52.334;4.806;2023-03-01T00:56:35;14.77;;;11.43;;
77262;SDS011;66373;52.334;4.806;2023-03-01T00:59:03;14.07;;;11.30;;
77262;SDS011;66373;52.334;4.806;2023-03-01T01:01:30;13.43;;;11.07;;
77262;SDS011;66373;52.334;4.806;2023-03-01T01:04:00;14.90;;;11.52;;
77262;SDS011;66373;52.334;4.806;2023-03-01T01:06:30;14.52;;;10.18;;
77262;SDS011;66373;52.334;4.806;2023-03-01T01:09:01;16.40;;;11.23;;
77262;SDS011;66373;52.334;4.806;2023-03-01T01:11:29;15.60;;;10.45;;
77262;SDS011;66373;52.334;4.806;2023-03-01T01:13:57;15.52;;;11.30;;
77262;SDS011;66373;52.334;4.806;2023-03-01T01:16:25;14.02;;;11.00;;
77262;SDS011;66373;52.334;4.806;2023-03-01T01:18:54;14.95;;;10.35;;
77262;SDS011;66373;52.334;4.806;2023-03-01T01:21:24;13.35;;;10.00;;
77262;SDS011;66373;52.334;4.806;2023-03-01T01:23:52;14.50;;;10.20;;
77262;SDS011;66373;52.334;4.806;2023-03-01T01:26:20;11.30;;;9.75;;
77262;SDS011;66373;52.334;4.806;2023-03-01T01:28:49;10.48;;;8.85;;
77262;SDS011;66373;52.334;4.806;2023-03-01T01:31:17;13.52;;;9.23;;
77262;SDS011;66373;52.334;4.806;2023-03-01T01:33:45;10.93;;;8.85;;
77262;SDS011;66373;52.334;4.806;2023-03-01T01:36:13;12.32;;;9.52;;
77262;SDS011;66373;52.334;4.806;2023-03-01T01:38:42;9.38;;;8.00;;
77262;SDS011;66373;52.334;4.806;2023-03-01T01:41:10;10.35;;;8.85;;
77262;SDS011;66373;52.334;4.806;2023-03-01T01:43:40;9.82;;;8.00;;
77262;SDS011;66373;52.334;4.806;2023-03-01T01:46:14;8.77;;;7.63;;
77262;SDS011;66373;52.334;4.806;2023-03-01T01:48:49;11.25;;;7.70;;
77262;SDS011;66373;52.334;4.806;2023-03-01T01:51:21;9.95;;;8.18;;
77262;SDS011;66373;52.334;4.806;2023-03-01T01:53:54;10.95;;;8.02;;
77262;SDS011;66373;52.334;4.806;2023-03-01T01:56:25;11.70;;;8.10;;
77262;SDS011;66373;52.334;4.806;2023-03-01T01:58:54;9.02;;;7.75;;
77262;SDS011;66373;52.334;4.806;2023-03-01T02:01:22;9.25;;;8.23;;
77262;SDS011;66373;52.334;4.806;2023-03-01T02:03:49;8.82;;;6.70;;
77262;SDS011;66373;52.334;4.806;2023-03-01T02:06:19;9.70;;;7.88;;
77262;SDS011;66373;52.334;4.806;2023-03-01T02:08:57;12.20;;;7.72;;
77262;SDS011;66373;52.334;4.806;2023-03-01T02:11:27;9.35;;;7.13;;
77262;SDS011;66373;52.334;4.806;2023-03-01T02:13:56;8.13;;;7.18;;
77262;SDS011;66373;52.334;4.806;2023-03-01T02:16:23;7.35;;;6.53;;
77262;SDS011;66373;52.334;4.806;2023-03-01T02:18:52;7.75;;;6.63;;
77262;SDS011;66373;52.334;4.806;2023-03-01T02:21:24;6.85;;;6.15;;
77262;SDS011;66373;52.334;4.806;2023-03-01T02:24:02;6.75;;;6.05;;
77262;SDS011;66373;52.334;4.806;2023-03-01T02:26:39;7.10;;;6.40;;
77262;SDS011;66373;52.334;4.806;2023-03-01T02:29:10;7.35;;;6.22;;
77262;SDS011;66373;52.334;4.806;2023-03-01T02:31:38;9.15;;;6.50;;
77262;SDS011;66373;52.334;4.806;2023-03-01T02:34:11;7.05;;;5.63;;
77262;SDS011;66373;52.334;4.806;2023-03-01T02:36:41;6.53;;;5.90;;
77262;SDS011;66373;52.334;4.806;2023-03-01T02:39:13;7.28;;;5.50;;
77262;SDS011;66373;52.334;4.806;2023-03-01T02:41:44;6.63;;;5.78;;
77262;SDS011;66373;52.334;4.806;2023-03-01T02:44:16;6.55;;;5.82;;
77262;SDS011;66373;52.334;4.806;2023-03-01T02:46:44;6.03;;;5.43;;
77262;SDS011;66373;52.334;4.806;2023-03-01T02:49:18;5.88;;;5.28;;
77262;SDS011;66373;52.334;4.806;2023-03-01T02:51:52;6.45;;;5.47;;
77262;SDS011;66373;52.334;4.806;2023-03-01T02:54:32;7.07;;;5.05;;
77262;SDS011;66373;52.334;4.806;2023-03-01T02:57:03;6.38;;;5.47;;
77262;SDS011;66373;52.334;4.806;2023-03-01T02:59:33;6.80;;;5.53;;
77262;SDS011;66373;52.334;4.806;2023-03-01T03:02:07;7.07;;;5.00;;
77262;SDS011;66373;52.334;4.806;2023-03-01T03:04:45;5.10;;;4.60;;
77262;SDS011;66373;52.334;4.806;2023-03-01T03:07:12;5.80;;;5.00;;
77262;SDS011;66373;52.334;4.806;2023-03-01T03:09:40;4.88;;;4.38;;
77262;SDS011;66373;52.334;4.806;2023-03-01T03:12:07;5.00;;;4.50;;
77262;SDS011;66373;52.334;4.806;2023-03-01T03:14:37;5.20;;;4.68;;
77262;SDS011;66373;52.334;4.806;2023-03-01T03:17:04;5.35;;;4.85;;
77262;SDS011;66373;52.334;4.806;2023-03-01T03:19:32;5.20;;;4.55;;
77262;SDS011;66373;52.334;4.806;2023-03-01T03:21:58;5.38;;;4.85;;
77262;SDS011;66373;52.334;4.806;2023-03-01T03:24:26;5.97;;;4.93;;
77262;SDS011;66373;52.334;4.806;2023-03-01T03:27:03;5.45;;;4.70;;
77262;SDS011;66373;52.334;4.806;2023-03-01T03:29:30;5.00;;;4.50;;
77262;SDS011;66373;52.334;4.806;2023-03-01T03:31:59;5.05;;;4.10;;
77262;SDS011;66373;52.334;4.806;2023-03-01T03:34:27;4.43;;;4.03;;
77262;SDS011;66373;52.334;4.806;2023-03-01T03:36:55;6.95;;;4.45;;
77262;SDS011;66373;52.334;4.806;2023-03-01T03:39:25;7.25;;;4.07;;
77262;SDS011;66373;52.334;4.806;2023-03-01T03:41:53;4.75;;;4.15;;
77262;SDS011;66373;52.334;4.806;2023-03-01T03:44:20;4.63;;;3.97;;
77262;SDS011;66373;52.334;4.806;2023-03-01T03:46:47;4.68;;;3.58;;
77262;SDS011;66373;52.334;4.806;2023-03-01T03:49:16;4.35;;;3.95;;
77262;SDS011;66373;52.334;4.806;2023-03-01T03:51:45;4.45;;;4.05;;
77262;SDS011;66373;52.334;4.806;2023-03-01T03:54:12;5.68;;;3.97;;
77262;SDS011;66373;52.334;4.806;2023-03-01T03:56:39;3.90;;;3.60;;
77262;SDS011;66373;52.334;4.806;2023-03-01T03:59:07;4.13;;;3.83;;
77262;SDS011;66373;52.334;4.806;2023-03-01T04:01:36;4.00;;;3.65;;
77262;SDS011;66373;52.334;4.806;2023-03-01T04:04:03;5.32;;;3.72;;
77262;SDS011;66373;52.334;4.806;2023-03-01T04:06:34;4.93;;;3.40;;
77262;SDS011;66373;52.334;4.806;2023-03-01T04:09:02;4.20;;;3.30;;
77262;SDS011;66373;52.334;4.806;2023-03-01T04:11:29;4.32;;;3.30;;
77262;SDS011;66373;52.334;4.806;2023-03-01T04:13:57;5.10;;;3.60;;
77262;SDS011;66373;52.334;4.806;2023-03-01T04:16:25;4.32;;;3.78;;
77262;SDS011;66373;52.334;4.806;2023-03-01T04:18:53;4.63;;;4.00;;
77262;SDS011;66373;52.334;4.806;2023-03-01T04:21:20;4.45;;;3.40;;
77262;SDS011;66373;52.334;4.806;2023-03-01T04:23:49;3.50;;;3.20;;
77262;SDS011;66373;52.334;4.806;2023-03-01T04:26:18;3.78;;;3.38;;
77262;SDS011;66373;52.334;4.806;2023-03-01T04:28:46;4.25;;;3.40;;
77262;SDS011;66373;52.334;4.806;2023-03-01T04:31:16;4.90;;;3.47;;
77262;SDS011;66373;52.334;4.806;2023-03-01T04:33:47;4.00;;;3.13;;
77262;SDS011;66373;52.334;4.806;2023-03-01T04:36:18;3.33;;;3.03;;
77262;SDS011;66373;52.334;4.806;2023-03-01T04:38:47;4.55;;;2.80;;
77262;SDS011;66373;52.334;4.806;2023-03-01T04:41:17;3.53;;;3.20;;
77262;SDS011;66373;52.334;4.806;2023-03-01T04:43:47;4.65;;;3.70;;
77262;SDS011;66373;52.334;4.806;2023-03-01T04:46:16;3.40;;;3.10;;
77262;SDS011;66373;52.334;4.806;2023-03-01T04:48:45;3.45;;;3.15;;
77262;SDS011;66373;52.334;4.806;2023-03-01T04:51:13;4.43;;;3.50;;
77262;SDS011;66373;52.334;4.806;2023-03-01T04:53:41;5.45;;;3.10;;
77262;SDS011;66373;52.334;4.806;2023-03-01T04:56:11;3.17;;;2.88;;
77262;SDS011;66373;52.334;4.806;2023-03-01T04:58:40;4.55;;;3.17;;
77262;SDS011;66373;52.334;4.806;2023-03-01T05:01:08;3.28;;;3.08;;
77262;SDS011;66373;52.334;4.806;2023-03-01T05:03:40;3.63;;;3.10;;
77262;SDS011;66373;52.334;4.806;2023-03-01T05:06:09;3.70;;;3.20;;
77262;SDS011;66373;52.334;4.806;2023-03-01T05:08:37;3.17;;;2.88;;
77262;SDS011;66373;52.334;4.806;2023-03-01T05:11:05;3.03;;;2.78;;
77262;SDS011;66373;52.334;4.806;2023-03-01T05:13:35;3.50;;;3.20;;
77262;SDS011;66373;52.334;4.806;2023-03-01T05:16:04;3.47;;;3.17;;
77262;SDS011;66373;52.334;4.806;2023-03-01T05:18:36;3.35;;;3.05;;
77262;SDS011;66373;52.334;4.806;2023-03-01T05:21:04;2.95;;;2.70;;
77262;SDS011;66373;52.334;4.806;2023-03-01T05:23:33;3.83;;;3.20;;
77262;SDS011;66373;52.334;4.806;2023-03-01T05:26:01;3.00;;;2.80;;
77262;SDS011;66373;52.334;4.806;2023-03-01T05:28:30;3.05;;;2.75;;
77262;SDS011;66373;52.334;4.806;2023-03-01T05:30:59;3.22;;;2.92;;
77262;SDS011;66373;52.334;4.806;2023-03-01T05:33:26;2.97;;;2.67;;
77262;SDS011;66373;52.334;4.806;2023-03-01T05:35:59;3.33;;;2.47;;
77262;SDS011;66373;52.334;4.806;2023-03-01T05:38:26;3.67;;;2.92;;
77262;SDS011;66373;52.334;4.806;2023-03-01T05:40:54;2.63;;;2.42;;
77262;SDS011;66373;52.334;4.806;2023-03-01T05:43:21;2.92;;;2.63;;
77262;SDS011;66373;52.334;4.806;2023-03-01T05:45:49;2.90;;;2.50;;
77262;SDS011;66373;52.334;4.806;2023-03-01T05:48:18;2.67;;;2.47;;
77262;SDS011;66373;52.334;4.806;2023-03-01T05:50:45;3.42;;;2.88;;
77262;SDS011;66373;52.334;4.806;2023-03-01T05:53:14;2.55;;;2.35;;
77262;SDS011;66373;52.334;4.806;2023-03-01T05:55:44;2.97;;;2.78;;
77262;SDS011;66373;52.334;4.806;2023-03-01T05:58:13;3.25;;;2.95;;
77262;SDS011;66373;52.334;4.806;2023-03-01T06:00:42;3.28;;;2.97;;
77262;SDS011;66373;52.334;4.806;2023-03-01T06:03:11;3.15;;;2.72;;
77262;SDS011;66373;52.334;4.806;2023-03-01T06:05:41;7.57;;;2.90;;
77262;SDS011;66373;52.334;4.806;2023-03-01T06:08:10;2.92;;;2.65;;
77262;SDS011;66373;52.334;4.806;2023-03-01T06:10:38;3.58;;;3.25;;
77262;SDS011;66373;52.334;4.806;2023-03-01T06:13:05;7.82;;;3.22;;
77262;SDS011;66373;52.334;4.806;2023-03-01T06:15:33;5.28;;;3.00;;
77262;SDS011;66373;52.334;4.806;2023-03-01T06:18:00;2.97;;;2.67;;
77262;SDS011;66373;52.334;4.806;2023-03-01T06:20:28;3.47;;;3.00;;
77262;SDS011;66373;52.334;4.806;2023-03-01T06:22:57;3.92;;;2.70;;
77262;SDS011;66373;52.334;4.806;2023-03-01T06:25:26;3.75;;;2.95;;
77262;SDS011;66373;52.334;4.806;2023-03-01T06:27:54;4.85;;;3.00;;
77262;SDS011;66373;52.334;4.806;2023-03-01T06:30:23;4.03;;;3.33;;
77262;SDS011;66373;52.334;4.806;2023-03-01T06:32:52;4.10;;;2.95;;
77262;SDS011;66373;52.334;4.806;2023-03-01T06:35:25;3.60;;;2.88;;
77262;SDS011;66373;52.334;4.806;2023-03-01T06:37:55;3.53;;;3.20;;
77262;SDS011;66373;52.334;4.806;2023-03-01T06:40:24;3.75;;;2.95;;
77262;SDS011;66373;52.334;4.806;2023-03-01T06:42:52;9.82;;;3.15;;
77262;SDS011;66373;52.334;4.806;2023-03-01T06:45:20;10.30;;;3.28;;
77262;SDS011;66373;52.334;4.806;2023-03-01T06:47:48;8.23;;;3.10;;
77262;SDS011;66373;52.334;4.806;2023-03-01T06:50:16;3.10;;;2.80;;
77262;SDS011;66373;52.334;4.806;2023-03-01T06:52:43;4.30;;;3.05;;
77262;SDS011;66373;52.334;4.806;2023-03-01T06:55:11;4.22;;;3.17;;
77262;SDS011;66373;52.334;4.806;2023-03-01T06:57:39;4.78;;;2.80;;
77262;SDS011;66373;52.334;4.806;2023-03-01T07:00:08;3.28;;;2.92;;
77262;SDS011;66373;52.334;4.806;2023-03-01T07:02:36;5.38;;;2.85;;
77262;SDS011;66373;52.334;4.806;2023-03-01T07:05:04;5.93;;;3.42;;
77262;SDS011;66373;52.334;4.806;2023-03-01T07:07:31;5.38;;;3.10;;
77262;SDS011;66373;52.334;4.806;2023-03-01T07:09:58;3.97;;;2.80;;
77262;SDS011;66373;52.334;4.806;2023-03-01T07:12:26;3.22;;;2.65;;
77262;SDS011;66373;52.334;4.806;2023-03-01T07:14:54;3.13;;;2.83;;
77262;SDS011;66373;52.334;4.806;2023-03-01T07:17:22;3.03;;;2.70;;
77262;SDS011;66373;52.334;4.806;2023-03-01T07:19:49;4.63;;;2.83;;
77262;SDS011;66373;52.334;4.806;2023-03-01T07:22:16;3.05;;;2.47;;
77262;SDS011;66373;52.334;4.806;2023-03-01T07:24:43;3.80;;;3.00;;
77262;SDS011;66373;52.334;4.806;2023-03-01T07:27:10;6.45;;;3.22;;
77262;SDS011;66373;52.334;4.806;2023-03-01T07:29:37;3.90;;;2.95;;
77262;SDS011;66373;52.334;4.806;2023-03-01T07:32:06;3.65;;;2.92;;
77262;SDS011;66373;52.334;4.806;2023-03-01T07:34:33;5.88;;;2.95;;
77262;SDS011;66373;52.334;4.806;2023-03-01T07:37:01;3.25;;;2.95;;
77262;SDS011;66373;52.334;4.806;2023-03-01T07:39:28;4.70;;;3.20;;
77262;SDS011;66373;52.334;4.806;2023-03-01T07:41:55;3.20;;;2.50;;
77262;SDS011;66373;52.334;4.806;2023-03-01T07:44:23;3.60;;;2.85;;
77262;SDS011;66373;52.334;4.806;2023-03-01T07:46:50;3.85;;;2.60;;
77262;SDS011;66373;52.334;4.806;2023-03-01T07:49:23;5.07;;;2.90;;
77262;SDS011;66373;52.334;4.806;2023-03-01T07:51:51;7.82;;;2.83;;
77262;SDS011;66373;52.334;4.806;2023-03-01T07:54:19;4.45;;;3.10;;
77262;SDS011;66373;52.334;4.806;2023-03-01T07:56:48;4.30;;;3.17;;
77262;SDS011;66373;52.334;4.806;2023-03-01T07:59:20;4.28;;;3.28;;
77262;SDS011;66373;52.334;4.806;2023-03-01T08:01:48;5.38;;;3.60;;
77262;SDS011;66373;52.334;4.806;2023-03-01T08:04:16;4.28;;;3.47;;
77262;SDS011;66373;52.334;4.806;2023-03-01T08:06:44;3.35;;;3.05;;
77262;SDS011;66373;52.334;4.806;2023-03-01T08:09:11;4.30;;;3.60;;
77262;SDS011;66373;52.334;4.806;2023-03-01T08:11:38;4.80;;;3.75;;
77262;SDS011;66373;52.334;4.806;2023-03-01T08:14:05;4.25;;;3.30;;
77262;SDS011;66373;52.334;4.806;2023-03-01T08:16:36;4.22;;;3.40;;
77262;SDS011;66373;52.334;4.806;2023-03-01T08:19:15;4.18;;;3.08;;
77262;SDS011;66373;52.334;4.806;2023-03-01T08:24:42;4.80;;;3.55;;
77262;SDS011;66373;52.334;4.806;2023-03-01T08:27:09;5.68;;;3.58;;
77262;SDS011;66373;52.334;4.806;2023-03-01T08:29:37;4.13;;;3.28;;
77262;SDS011;66373;52.334;4.806;2023-03-01T08:32:14;4.32;;;3.38;;
77262;SDS011;66373;52.334;4.806;2023-03-01T08:34:46;5.85;;;3.90;;
77262;SDS011;66373;52.334;4.806;2023-03-01T08:37:24;4.80;;;3.90;;
77262;SDS011;66373;52.334;4.806;2023-03-01T08:39:53;3.85;;;3.55;;
77262;SDS011;66373;52.334;4.806;2023-03-01T08:42:20;4.90;;;3.50;;
77262;SDS011;66373;52.334;4.806;2023-03-01T08:44:48;4.28;;;3.88;;
77262;SDS011;66373;52.334;4.806;2023-03-01T08:47:16;5.30;;;3.83;;
77262;SDS011;66373;52.334;4.806;2023-03-01T08:49:44;5.53;;;4.00;;
77262;SDS011;66373;52.334;4.806;2023-03-01T08:52:29;4.85;;;3.60;;
77262;SDS011;66373;52.334;4.806;2023-03-01T08:55:02;3.53;;;3.22;;
77262;SDS011;66373;52.334;4.806;2023-03-01T08:57:37;4.32;;;3.53;;
77262;SDS011;66373;52.334;4.806;2023-03-01T09:00:06;3.92;;;3.50;;
77262;SDS011;66373;52.334;4.806;2023-03-01T09:02:35;5.68;;;3.95;;
77262;SDS011;66373;52.334;4.806;2023-03-01T09:05:03;4.72;;;4.05;;
77262;SDS011;66373;52.334;4.806;2023-03-01T09:07:32;6.18;;;4.13;;
77262;SDS011;66373;52.334;4.806;2023-03-01T09:10:00;5.05;;;3.70;;
77262;SDS011;66373;52.334;4.806;2023-03-01T09:12:28;4.55;;;3.75;;
77262;SDS011;66373;52.334;4.806;2023-03-01T09:14:56;6.43;;;4.00;;
77262;SDS011;66373;52.334;4.806;2023-03-01T09:17:24;5.15;;;3.88;;
77262;SDS011;66373;52.334;4.806;2023-03-01T09:19:52;4.13;;;3.65;;
77262;SDS011;66373;52.334;4.806;2023-03-01T09:22:19;5.32;;;4.28;;
77262;SDS011;66373;52.334;4.806;2023-03-01T09:24:49;5.32;;;3.72;;
77262;SDS011;66373;52.334;4.806;2023-03-01T09:27:17;4.03;;;3.63;;
77262;SDS011;66373;52.334;4.806;2023-03-01T09:29:44;6.63;;;4.50;;
77262;SDS011;66373;52.334;4.806;2023-03-01T09:32:11;4.10;;;3.70;;
77262;SDS011;66373;52.334;4.806;2023-03-01T09:34:39;5.03;;;4.10;;
77262;SDS011;66373;52.334;4.806;2023-03-01T09:37:20;5.10;;;3.70;;
77262;SDS011;66373;52.334;4.806;2023-03-01T09:39:48;4.20;;;3.80;;
77262;SDS011;66373;52.334;4.806;2023-03-01T09:42:16;4.40;;;3.72;;
77262;SDS011;66373;52.334;4.806;2023-03-01T09:44:45;6.00;;;3.90;;
77262;SDS011;66373;52.334;4.806;2023-03-01T09:47:18;4.40;;;4.00;;
77262;SDS011;66373;52.334;4.806;2023-03-01T09:49:51;3.92;;;3.53;;
77262;SDS011;66373;52.334;4.806;2023-03-01T09:52:28;5.40;;;3.78;;
77262;SDS011;66373;52.334;4.806;2023-03-01T09:55:08;5.50;;;3.92;;
77262;SDS011;66373;52.334;4.806;2023-03-01T09:57:42;6.90;;;4.00;;
77262;SDS011;66373;52.334;4.806;2023-03-01T10:00:26;5.22;;;3.70;;
77262;SDS011;66373;52.334;4.806;2023-03-01T10:03:01;4.68;;;3.92;;
77262;SDS011;66373;52.334;4.806;2023-03-01T10:05:41;4.93;;;3.80;;
77262;SDS011;66373;52.334;4.806;2023-03-01T10:08:19;3.90;;;3.40;;
77262;SDS011;66373;52.334;4.806;2023-03-01T10:10:56;4.18;;;3.78;;
77262;SDS011;66373;52.334;4.806;2023-03-01T10:13:28;4.88;;;4.25;;
77262;SDS011;66373;52.334;4.806;2023-03-01T10:16:01;5.00;;;4.03;;
77262;SDS011;66373;52.334;4.806;2023-03-01T10:18:36;4.25;;;3.35;;
77262;SDS011;66373;52.334;4.806;2023-03-01T10:21:12;4.72;;;3.97;;
77262;SDS011;66373;52.334;4.806;2023-03-01T10:23:42;4.60;;;3.83;;
77262;SDS011;66373;52.334;4.806;2023-03-01T10:26:22;5.43;;;3.95;;
77262;SDS011;66373;52.334;4.806;2023-03-01T10:29:01;5.75;;;3.85;;
77262;SDS011;66373;52.334;4.806;2023-03-01T10:31:34;4.18;;;3.75;;
77262;SDS011;66373;52.334;4.806;2023-03-01T10:34:13;4.90;;;3.58;;
77262;SDS011;66373;52.334;4.806;2023-03-01T10:36:44;3.65;;;3.08;;
77262;SDS011;66373;52.334;4.806;2023-03-01T10:39:16;4.07;;;3.63;;
77262;SDS011;66373;52.334;4.806;2023-03-01T10:41:53;5.97;;;3.80;;
77262;SDS011;66373;52.334;4.806;2023-03-01T10:44:36;6.28;;;3.53;;
77262;SDS011;66373;52.334;4.806;2023-03-01T10:47:12;4.93;;;3.40;;
77262;SDS011;66373;52.334;4.806;2023-03-01T10:49:51;4.32;;;3.40;;
77262;SDS011;66373;52.334;4.806;2023-03-01T10:52:20;4.22;;;3.47;;
77262;SDS011;66373;52.334;4.806;2023-03-01T10:54:53;4.40;;;3.63;;
77262;SDS011;66373;52.334;4.806;2023-03-01T10:57:39;5.15;;;3.53;;
77262;SDS011;66373;52.334;4.806;2023-03-01T11:00:15;4.28;;;3.67;;
77262;SDS011;66373;52.334;4.806;2023-03-01T11:02:46;4.88;;;3.70;;
77262;SDS011;66373;52.334;4.806;2023-03-01T11:05:17;4.07;;;3.53;;
77262;SDS011;66373;52.334;4.806;2023-03-01T11:07:57;4.00;;;3.38;;
77262;SDS011;66373;52.334;4.806;2023-03-01T11:13:07;6.03;;;3.55;;
77262;SDS011;66373;52.334;4.806;2023-03-01T11:15:43;3.92;;;3.53;;
77262;SDS011;66373;52.334;4.806;2023-03-01T11:18:26;4.45;;;3.40;;
77262;SDS011;66373;52.334;4.806;2023-03-01T11:20:56;5.35;;;3.70;;
77262;SDS011;66373;52.334;4.806;2023-03-01T11:23:27;3.33;;;3.03;;
77262;SDS011;66373;52.334;4.806;2023-03-01T11:26:00;3.28;;;3.03;;
77262;SDS011;66373;52.334;4.806;2023-03-01T11:28:34;6.10;;;3.28;;
77262;SDS011;66373;52.334;4.806;2023-03-01T11:31:09;3.97;;;3.55;;
77262;SDS011;66373;52.334;4.806;2023-03-01T11:33:40;4.18;;;3.47;;
77262;SDS011;66373;52.334;4.806;2023-03-01T11:36:16;3.90;;;3.42;;
77262;SDS011;66373;52.334;4.806;2023-03-01T11:38:51;3.70;;;3.15;;
77262;SDS011;66373;52.334;4.806;2023-03-01T11:41:21;4.50;;;4.03;;
77262;SDS011;66373;52.334;4.806;2023-03-01T11:43:55;5.05;;;3.47;;
77262;SDS011;66373;52.334;4.806;2023-03-01T11:46:33;3.75;;;3.35;;
77262;SDS011;66373;52.334;4.806;2023-03-01T11:52:09;3.90;;;3.60;;
77262;SDS011;66373;52.334;4.806;2023-03-01T11:54:49;3.88;;;3.42;;
77262;SDS011;66373;52.334;4.806;2023-03-01T11:57:35;4.43;;;3.53;;
77262;SDS011;66373;52.334;4.806;2023-03-01T12:00:24;3.70;;;3.35;;
77262;SDS011;66373;52.334;4.806;2023-03-01T12:03:13;4.28;;;3.83;;
77262;SDS011;66373;52.334;4.806;2023-03-01T12:06:08;4.18;;;3.45;;
77262;SDS011;66373;52.334;4.806;2023-03-01T12:08:51;3.85;;;3.55;;
77262;SDS011;66373;52.334;4.806;2023-03-01T12:11:32;5.95;;;4.03;;
77262;SDS011;66373;52.334;4.806;2023-03-01T12:14:17;3.92;;;3.60;;
77262;SDS011;66373;52.334;4.806;2023-03-01T12:17:18;4.57;;;3.65;;
77262;SDS011;66373;52.334;4.806;2023-03-01T12:20:40;4.30;;;3.50;;
77262;SDS011;66373;52.334;4.806;2023-03-01T12:27:00;4.38;;;3.60;;
77262;SDS011;66373;52.334;4.806;2023-03-01T12:29:50;4.80;;;4.15;;
77262;SDS011;66373;52.334;4.806;2023-03-01T12:36:28;4.13;;;3.72;;
77262;SDS011;66373;52.334;4.806;2023-03-01T12:39:18;4.03;;;3.22;;
77262;SDS011;66373;52.334;4.806;2023-03-01T12:42:11;4.40;;;3.67;;
77262;SDS011;66373;52.334;4.806;2023-03-01T12:47:52;3.75;;;3.45;;
77262;SDS011;66373;52.334;4.806;2023-03-01T12:50:47;3.85;;;3.55;;
77262;SDS011;66373;52.334;4.806;2023-03-01T12:53:21;3.85;;;3.45;;
77262;SDS011;66373;52.334;4.806;2023-03-01T12:55:50;4.78;;;3.88;;
77262;SDS011;66373;52.334;4.806;2023-03-01T12:58:22;4.72;;;3.63;;
77262;SDS011;66373;52.334;4.806;2023-03-01T13:01:04;4.35;;;3.95;;
77262;SDS011;66373;52.334;4.806;2023-03-01T13:03:57;4.38;;;3.53;;
77262;SDS011;66373;52.334;4.806;2023-03-01T13:06:35;4.40;;;4.00;;
77262;SDS011;66373;52.334;4.806;2023-03-01T13:09:22;3.75;;;3.40;;
77262;SDS011;66373;52.334;4.806;2023-03-01T13:15:28;3.83;;;3.42;;
77262;SDS011;66373;52.334;4.806;2023-03-01T13:18:03;3.80;;;3.42;;
77262;SDS011;66373;52.334;4.806;2023-03-01T13:20:53;3.70;;;3.35;;
77262;SDS011;66373;52.334;4.806;2023-03-01T13:23:27;3.72;;;3.40;;
77262;SDS011;66373;52.334;4.806;2023-03-01T13:26:09;4.15;;;3.53;;
77262;SDS011;66373;52.334;4.806;2023-03-01T13:28:39;3.95;;;3.53;;
77262;SDS011;66373;52.334;4.806;2023-03-01T13:34:45;4.43;;;4.03;;
77262;SDS011;66373;52.334;4.806;2023-03-01T13:37:26;4.15;;;3.55;;
77262;SDS011;66373;52.334;4.806;2023-03-01T13:39:57;4.30;;;3.55;;
77262;SDS011;66373;52.334;4.806;2023-03-01T13:42:36;4.30;;;3.50;;
77262;SDS011;66373;52.334;4.806;2023-03-01T13:45:21;4.15;;;3.75;;
77262;SDS011;66373;52.334;4.806;2023-03-01T13:47:53;4.40;;;3.72;;
77262;SDS011;66373;52.334;4.806;2023-03-01T13:50:25;4.28;;;3.88;;
77262;SDS011;66373;52.334;4.806;2023-03-01T13:52:55;4.10;;;3.70;;
77262;SDS011;66373;52.334;4.806;2023-03-01T13:55:27;3.45;;;3.15;;
77262;SDS011;66373;52.334;4.806;2023-03-01T13:58:03;5.15;;;3.40;;
77262;SDS011;66373;52.334;4.806;2023-03-01T14:00:41;4.03;;;3.58;;
77262;SDS011;66373;52.334;4.806;2023-03-01T14:03:09;4.53;;;3.30;;
77262;SDS011;66373;52.334;4.806;2023-03-01T14:05:39;4.78;;;3.35;;
77262;SDS011;66373;52.334;4.806;2023-03-01T14:08:18;3.97;;;3.58;;
77262;SDS011;66373;52.334;4.806;2023-03-01T14:10:54;4.85;;;3.45;;
77262;SDS011;66373;52.334;4.806;2023-03-01T14:13:43;4.13;;;3.45;;
77262;SDS011;66373;52.334;4.806;2023-03-01T14:16:25;4.80;;;3.78;;
77262;SDS011;66373;52.334;4.806;2023-03-01T14:19:16;4.03;;;3.58;;
77262;SDS011;66373;52.334;4.806;2023-03-01T14:21:46;4.47;;;3.40;;
77262;SDS011;66373;52.334;4.806;2023-03-01T14:24:18;3.72;;;3.15;;
77262;SDS011;66373;52.334;4.806;2023-03-01T14:26:48;4.13;;;3.72;;
77262;SDS011;66373;52.334;4.806;2023-03-01T14:29:25;5.38;;;3.47;;
77262;SDS011;66373;52.334;4.806;2023-03-01T14:31:54;3.63;;;3.30;;
77262;SDS011;66373;52.334;4.806;2023-03-01T14:34:21;7.63;;;3.63;;
77262;SDS011;66373;52.334;4.806;2023-03-01T14:36:50;3.92;;;3.30;;
77262;SDS011;66373;52.334;4.806;2023-03-01T14:39:18;4.63;;;3.67;;
77262;SDS011;66373;52.334;4.806;2023-03-01T14:41:46;4.45;;;3.28;;
77262;SDS011;66373;52.334;4.806;2023-03-01T14:44:15;5.32;;;3.38;;
77262;SDS011;66373;52.334;4.806;2023-03-01T14:46:51;4.13;;;3.10;;
77262;SDS011;66373;52.334;4.806;2023-03-01T14:49:21;3.95;;;3.55;;
77262;SDS011;66373;52.334;4.806;2023-03-01T14:51:52;4.50;;;3.47;;
77262;SDS011;66373;52.334;4.806;2023-03-01T14:54:24;5.45;;;4.22;;
77262;SDS011;66373;52.334;4.806;2023-03-01T14:56:58;7.50;;;3.78;;
77262;SDS011;66373;52.334;4.806;2023-03-01T15:01:56;5.45;;;3.42;;
77262;SDS011;66373;52.334;4.806;2023-03-01T15:04:25;7.65;;;3.83;;
77262;SDS011;66373;52.334;4.806;2023-03-01T15:06:54;4.10;;;3.70;;
77262;SDS011;66373;52.334;4.806;2023-03-01T15:09:30;4.20;;;3.80;;
77262;SDS011;66373;52.334;4.806;2023-03-01T15:12:01;6.85;;;4.45;;
77262;SDS011;66373;52.334;4.806;2023-03-01T15:15:00;6.32;;;4.22;;
77262;SDS011;66373;52.334;4.806;2023-03-01T15:17:30;6.32;;;3.83;;
77262;SDS011;66373;52.334;4.806;2023-03-01T15:20:00;5.40;;;4.38;;
77262;SDS011;66373;52.334;4.806;2023-03-01T15:22:29;6.30;;;4.03;;
77262;SDS011;66373;52.334;4.806;2023-03-01T15:24:57;5.88;;;4.72;;
77262;SDS011;66373;52.334;4.806;2023-03-01T15:27:24;4.72;;;3.78;;
77262;SDS011;66373;52.334;4.806;2023-03-01T15:29:53;7.60;;;4.72;;
77262;SDS011;66373;52.334;4.806;2023-03-01T15:32:25;6.15;;;4.38;;
77262;SDS011;66373;52.334;4.806;2023-03-01T15:34:56;6.30;;;4.65;;
77262;SDS011;66373;52.334;4.806;2023-03-01T15:37:38;8.82;;;4.60;;
77262;SDS011;66373;52.334;4.806;2023-03-01T15:40:18;8.57;;;5.05;;
77262;SDS011;66373;52.334;4.806;2023-03-01T15:42:49;6.10;;;4.97;;